Time;durP1;ratioP1;P1;durP2;ratioP2;P2;SDS_P1;SDS_P2;PMS_P1;PMS_P2;Temp;Humidity;BMP_temperature;BMP_pressure;BME280_temperature;BME280_humidity;BME280_pressure;Samples;Min_cycle;Max_cycle;Signal;HPM_P1;HPM_P2
2020/12/27 00:02:05;;;;;;;11.50;11.00;;;4.80;99.90;;;;;;5109667;27;20466;-75
2020/12/27 00:04:32;;;;;;;11.67;11.17;;;4.80;99.90;;;;;;5112476;27;20460;-75
2020/12/27 00:07:01;;;;;;;11.07;10.67;;;4.70;99.90;;;;;;5114824;27;20460;-75
2020/12/27 00:09:28;;;;;;;11.20;10.70;;;4.70;99.90;;;;;;5110673;27;20532;-75
2020/12/27 00:11:55;;;;;;;11.67;11.17;;;4.70;99.90;;;;;;5120778;27;20457;-75
2020/12/27 00:14:21;;;;;;;11.47;11.00;;;4.70;99.90;;;;;;5115625;27;20523;-75
2020/12/27 00:16:48;;;;;;;11.40;10.90;;;4.70;99.90;;;;;;5121966;27;20472;-74
2020/12/27 00:19:14;;;;;;;11.40;10.90;;;4.70;99.90;;;;;;5120523;27;20516;-75
2020/12/27 00:21:41;;;;;;;11.20;10.73;;;4.60;99.90;;;;;;5117650;27;20818;-75
2020/12/27 00:24:07;;;;;;;11.43;10.93;;;4.70;99.90;;;;;;5116158;27;20462;-75
2020/12/27 00:26:33;;;;;;;10.83;10.23;;;4.70;99.90;;;;;;5122675;27;20461;-75
2020/12/27 00:29:01;;;;;;;11.57;10.97;;;4.70;99.90;;;;;;5118825;27;20562;-75
2020/12/27 00:31:27;;;;;;;11.40;10.90;;;4.80;99.90;;;;;;5128948;27;20901;-74
2020/12/27 00:33:53;;;;;;;10.87;10.43;;;4.70;99.90;;;;;;5121884;27;20487;-74
2020/12/27 00:36:21;;;;;;;11.57;11.07;;;4.70;99.90;;;;;;5116647;27;20485;-74
2020/12/27 00:38:48;;;;;;;11.30;10.83;;;4.70;99.90;;;;;;5117873;27;20464;-75
2020/12/27 00:41:21;;;;;;;11.50;11.00;;;4.70;99.90;;;;;;5113954;27;20494;-75
2020/12/27 00:43:47;;;;;;;11.17;10.67;;;4.70;99.90;;;;;;5119209;27;20464;-75
2020/12/27 00:46:15;;;;;;;11.37;10.87;;;4.70;99.90;;;;;;5119084;27;20831;-75
2020/12/27 00:48:42;;;;;;;11.03;10.63;;;4.70;99.90;;;;;;5117511;27;20471;-75
2020/12/27 00:51:09;;;;;;;11.47;10.97;;;4.60;99.90;;;;;;5113157;27;20541;-74
2020/12/27 00:53:35;;;;;;;10.77;10.37;;;4.60;99.90;;;;;;5120441;27;20488;-75
2020/12/27 00:56:02;;;;;;;11.73;11.23;;;4.50;99.90;;;;;;5121998;27;20544;-75
2020/12/27 00:58:29;;;;;;;11.40;10.90;;;4.60;99.90;;;;;;5119900;27;20461;-74
2020/12/27 01:00:56;;;;;;;11.00;10.50;;;4.60;99.90;;;;;;5119742;27;20468;-74
2020/12/27 01:03:24;;;;;;;10.90;10.50;;;4.50;99.90;;;;;;5118408;27;20494;-75
2020/12/27 01:05:50;;;;;;;11.50;11.00;;;4.50;99.90;;;;;;5122695;27;20456;-74
2020/12/27 01:08:17;;;;;;;11.00;10.53;;;4.50;99.90;;;;;;5119181;27;20868;-74
2020/12/27 01:10:43;;;;;;;10.50;10.10;;;4.50;99.90;;;;;;5118654;27;20956;-75
2020/12/27 01:13:10;;;;;;;11.63;11.13;;;4.50;99.90;;;;;;5123112;27;20548;-75
2020/12/27 01:15:38;;;;;;;11.47;10.97;;;4.60;99.90;;;;;;5121620;27;20482;-74
2020/12/27 01:18:05;;;;;;;11.43;10.93;;;4.60;99.90;;;;;;5120036;27;20456;-74
2020/12/27 01:20:33;;;;;;;10.90;10.43;;;4.70;99.90;;;;;;5117412;27;20464;-74
2020/12/27 01:22:59;;;;;;;11.63;11.03;;;4.70;99.90;;;;;;5119876;27;20488;-74
2020/12/27 01:25:26;;;;;;;11.43;10.93;;;4.80;99.90;;;;;;5119748;27;20469;-75
2020/12/27 01:27:53;;;;;;;11.57;10.97;;;4.80;99.90;;;;;;5116490;27;20460;-75
2020/12/27 01:30:20;;;;;;;10.73;10.33;;;4.80;99.90;;;;;;5121024;27;20898;-75
2020/12/27 01:32:46;;;;;;;11.10;10.60;;;4.80;99.90;;;;;;5118900;27;20460;-74
2020/12/27 01:35:13;;;;;;;11.27;10.77;;;4.80;99.90;;;;;;5117953;27;20485;-74
2020/12/27 01:37:40;;;;;;;11.03;10.63;;;4.90;99.90;;;;;;5117229;27;20480;-75
2020/12/27 01:40:07;;;;;;;11.10;10.60;;;4.90;99.90;;;;;;5115320;27;20511;-74
2020/12/27 01:42:33;;;;;;;10.80;10.37;;;4.90;99.90;;;;;;5119750;27;20456;-74
2020/12/27 01:45:00;;;;;;;11.20;10.70;;;4.90;99.90;;;;;;5119916;27;20460;-74
2020/12/27 01:47:32;;;;;;;11.10;10.70;;;5.00;99.90;;;;;;5117043;27;20467;-74
2020/12/27 01:49:59;;;;;;;12.00;11.50;;;5.00;99.90;;;;;;5117308;27;20874;-74
2020/12/27 01:52:25;;;;;;;13.13;12.43;;;5.00;99.90;;;;;;5114813;27;20461;-74
2020/12/27 01:54:52;;;;;;;11.37;10.87;;;5.00;99.90;;;;;;5111626;27;20500;-74
2020/12/27 01:57:22;;;;;;;10.57;10.17;;;5.00;99.90;;;;;;5117943;27;20507;-75
2020/12/27 01:59:51;;;;;;;10.70;10.20;;;5.00;99.90;;;;;;5116865;27;20567;-74
2020/12/27 02:02:18;;;;;;;10.00;9.60;;;5.00;99.90;;;;;;5120302;27;20468;-74
2020/12/27 02:04:44;;;;;;;10.70;10.20;;;5.00;99.90;;;;;;5118137;27;20867;-74
2020/12/27 02:07:12;;;;;;;11.17;10.67;;;5.00;99.90;;;;;;5120429;27;20463;-74
2020/12/27 02:09:40;;;;;;;11.07;10.57;;;5.10;99.90;;;;;;5119545;27;20466;-74
2020/12/27 02:12:08;;;;;;;10.60;10.17;;;5.10;99.90;;;;;;5114032;27;20461;-75
2020/12/27 02:14:35;;;;;;;10.63;10.13;;;5.10;99.90;;;;;;5112819;27;20489;-74
2020/12/27 02:17:02;;;;;;;10.50;10.10;;;5.10;99.90;;;;;;5123050;27;20472;-74
2020/12/27 02:19:28;;;;;;;10.73;10.33;;;5.10;99.90;;;;;;5116631;27;20467;-74
2020/12/27 02:21:55;;;;;;;10.80;10.33;;;5.10;99.90;;;;;;5119165;27;20456;-74
2020/12/27 02:24:22;;;;;;;10.23;9.83;;;5.10;99.90;;;;;;5117208;27;20473;-74
2020/12/27 02:26:59;;;;;;;10.83;10.33;;;5.10;99.90;;;;;;5117232;27;20456;-74
2020/12/27 02:29:26;;;;;;;10.60;10.20;;;5.10;99.90;;;;;;5119028;27;20828;-74
2020/12/27 02:31:53;;;;;;;10.80;10.40;;;5.10;99.90;;;;;;5116648;27;20457;-74
2020/12/27 02:34:20;;;;;;;10.80;10.40;;;5.10;99.90;;;;;;5115873;27;20492;-74
2020/12/27 02:36:46;;;;;;;10.60;10.20;;;5.10;99.90;;;;;;5119313;27;20579;-74
2020/12/27 02:39:14;;;;;;;11.10;10.60;;;5.10;99.90;;;;;;5114873;27;20471;-74
2020/12/27 02:41:42;;;;;;;11.30;10.80;;;5.10;99.90;;;;;;5114516;27;20480;-74
2020/12/27 02:44:09;;;;;;;10.80;10.40;;;5.10;99.90;;;;;;5114377;27;20830;-74
2020/12/27 02:46:35;;;;;;;10.87;10.27;;;5.10;99.90;;;;;;5118948;27;20460;-74
2020/12/27 02:49:02;;;;;;;10.77;10.37;;;5.00;99.90;;;;;;5112564;27;21221;-74
2020/12/27 02:51:28;;;;;;;10.83;10.40;;;5.00;99.90;;;;;;5116185;27;20460;-74
2020/12/27 02:53:56;;;;;;;10.73;10.33;;;5.10;99.90;;;;;;5112785;27;20485;-74
2020/12/27 02:56:23;;;;;;;10.60;10.20;;;5.10;99.90;;;;;;5118508;27;20467;-74
2020/12/27 02:58:52;;;;;;;10.67;10.27;;;5.10;99.90;;;;;;5113235;27;20593;-74
2020/12/27 03:01:18;;;;;;;10.53;10.13;;;5.10;99.90;;;;;;5114529;27;20986;-74
2020/12/27 03:03:45;;;;;;;10.53;10.13;;;5.10;99.90;;;;;;5117058;27;20457;-74
2020/12/27 03:06:12;;;;;;;10.50;10.10;;;5.10;99.90;;;;;;5116808;27;20517;-74
2020/12/27 03:08:39;;;;;;;10.30;9.90;;;5.00;99.90;;;;;;5116051;27;20471;-74
2020/12/27 03:11:05;;;;;;;10.67;10.27;;;5.10;99.90;;;;;;5117950;27;20955;-74
2020/12/27 03:13:32;;;;;;;11.70;11.10;;;5.10;99.90;;;;;;5113414;27;20464;-74
2020/12/27 03:16:00;;;;;;;11.07;10.67;;;5.10;99.90;;;;;;5120611;27;20460;-74
2020/12/27 03:18:27;;;;;;;10.80;10.40;;;5.20;99.90;;;;;;5120972;28;21254;-74
2020/12/27 03:20:54;;;;;;;10.60;10.10;;;5.20;99.90;;;;;;5117514;28;20464;-74
2020/12/27 03:23:20;;;;;;;10.37;9.97;;;5.20;99.90;;;;;;5118239;28;21013;-74
2020/12/27 03:25:47;;;;;;;11.10;10.70;;;5.20;99.90;;;;;;5116952;28;20495;-74
2020/12/27 03:28:13;;;;;;;10.97;10.40;;;5.30;99.90;;;;;;5116113;28;20832;-74
2020/12/27 03:30:39;;;;;;;11.23;10.73;;;5.30;99.90;;;;;;5113104;27;21044;-74
2020/12/27 03:33:07;;;;;;;11.30;10.90;;;5.30;99.90;;;;;;5120020;28;20547;-74
2020/12/27 03:35:34;;;;;;;11.13;10.73;;;5.30;99.90;;;;;;5117243;28;20500;-74
2020/12/27 03:38:00;;;;;;;10.90;10.40;;;5.30;99.90;;;;;;5113382;28;20810;-74
2020/12/27 03:40:27;;;;;;;11.27;10.87;;;5.30;99.90;;;;;;5114932;28;20488;-74
2020/12/27 03:42:53;;;;;;;10.73;10.33;;;5.30;99.90;;;;;;5117248;28;21123;-74
2020/12/27 03:45:20;;;;;;;10.87;10.47;;;5.20;99.90;;;;;;5114769;27;20459;-74
2020/12/27 03:47:46;;;;;;;10.10;9.70;;;5.20;99.90;;;;;;5120767;28;20462;-74
2020/12/27 03:50:14;;;;;;;10.50;10.10;;;5.20;99.90;;;;;;5117046;28;20461;-73
2020/12/27 03:52:40;;;;;;;11.00;10.50;;;5.30;99.90;;;;;;5118278;28;20463;-74
2020/12/27 03:55:07;;;;;;;10.30;9.90;;;5.20;99.90;;;;;;5120361;28;20531;-74
2020/12/27 03:57:33;;;;;;;10.60;10.20;;;5.30;99.90;;;;;;5114279;28;20471;-74
2020/12/27 04:00:03;;;;;;;11.07;10.67;;;5.30;99.90;;;;;;5115167;28;20460;-74
2020/12/27 04:02:30;;;;;;;9.90;9.50;;;5.30;99.90;;;;;;5114149;28;20453;-73
2020/12/27 04:04:56;;;;;;;10.63;10.23;;;5.30;99.90;;;;;;5106803;28;20515;-74
2020/12/27 04:07:24;;;;;;;11.10;10.70;;;5.30;99.90;;;;;;5121567;28;20452;-74
2020/12/27 04:09:50;;;;;;;10.70;10.30;;;5.30;99.90;;;;;;5111982;28;20456;-74
2020/12/27 04:12:17;;;;;;;10.70;10.30;;;5.40;99.90;;;;;;5114253;28;20576;-74
2020/12/27 04:14:43;;;;;;;10.27;9.87;;;5.40;99.90;;;;;;5117658;28;20496;-74
2020/12/27 04:17:10;;;;;;;10.53;9.93;;;5.40;99.90;;;;;;5123349;27;20463;-74
2020/12/27 04:19:36;;;;;;;10.67;10.27;;;5.50;99.90;;;;;;5116740;28;20499;-74
2020/12/27 04:22:02;;;;;;;10.20;9.80;;;5.50;99.90;;;;;;5115771;27;20517;-74
2020/12/27 04:24:30;;;;;;;10.23;9.83;;;5.50;99.90;;;;;;5117689;27;20949;-74
2020/12/27 04:26:56;;;;;;;10.53;10.13;;;5.50;99.90;;;;;;5119330;27;20464;-74
2020/12/27 04:29:22;;;;;;;10.30;9.90;;;5.50;99.90;;;;;;5123328;27;20485;-74
2020/12/27 04:31:52;;;;;;;9.97;9.57;;;5.50;99.90;;;;;;5114644;27;20995;-73
2020/12/27 04:34:18;;;;;;;11.13;10.73;;;5.50;99.90;;;;;;5121822;27;21200;-74
2020/12/27 04:36:45;;;;;;;10.87;10.37;;;5.50;99.90;;;;;;5118361;27;20890;-74
2020/12/27 04:39:12;;;;;;;10.60;10.20;;;5.50;99.90;;;;;;5121928;27;20926;-74
2020/12/27 04:41:39;;;;;;;11.10;10.70;;;5.50;99.90;;;;;;5118158;27;20483;-74
2020/12/27 04:44:07;;;;;;;10.80;10.40;;;5.50;99.90;;;;;;5119493;27;20879;-74
2020/12/27 04:46:33;;;;;;;10.50;10.10;;;5.50;99.90;;;;;;5124604;27;20476;-74
2020/12/27 04:49:00;;;;;;;10.57;10.17;;;5.50;99.90;;;;;;5116253;27;20489;-73
2020/12/27 04:51:28;;;;;;;10.90;10.50;;;5.60;99.90;;;;;;5119619;27;20460;-74
2020/12/27 04:53:57;;;;;;;10.67;10.27;;;5.60;99.90;;;;;;5121729;27;20563;-73
2020/12/27 04:56:25;;;;;;;10.67;10.27;;;5.60;99.90;;;;;;5117281;27;20472;-74
2020/12/27 04:58:54;;;;;;;10.87;10.47;;;5.60;99.90;;;;;;5117984;27;20496;-73
2020/12/27 05:01:21;;;;;;;10.93;10.43;;;5.60;99.90;;;;;;5119045;27;20457;-74
2020/12/27 05:03:49;;;;;;;10.80;10.40;;;5.60;99.90;;;;;;5115104;27;20457;-74
2020/12/27 05:06:16;;;;;;;10.30;9.90;;;5.60;99.90;;;;;;5115350;27;20572;-74
2020/12/27 05:08:44;;;;;;;10.70;10.30;;;5.50;99.90;;;;;;5114675;27;20468;-74
2020/12/27 05:11:13;;;;;;;10.30;9.90;;;5.60;99.90;;;;;;5121345;27;20453;-73
2020/12/27 05:13:43;;;;;;;10.40;10.00;;;5.60;99.90;;;;;;5112746;27;20456;-74
2020/12/27 05:16:11;;;;;;;10.70;10.30;;;5.70;99.90;;;;;;5128284;27;20488;-74
2020/12/27 05:18:37;;;;;;;10.07;9.67;;;5.70;99.90;;;;;;5119827;27;20828;-74
2020/12/27 05:21:04;;;;;;;11.00;10.60;;;5.70;99.90;;;;;;5117144;27;20501;-74
2020/12/27 05:23:31;;;;;;;11.33;10.83;;;5.70;99.90;;;;;;5116842;27;20462;-74
2020/12/27 05:26:04;;;;;;;10.63;10.23;;;5.70;99.90;;;;;;5123072;27;20803;-74
2020/12/27 05:28:32;;;;;;;11.07;10.67;;;5.70;99.90;;;;;;5119512;27;20514;-74
2020/12/27 05:30:58;;;;;;;10.57;10.17;;;5.70;99.90;;;;;;5115502;27;20548;-73
2020/12/27 05:33:26;;;;;;;10.90;10.50;;;5.70;99.90;;;;;;5107326;27;20465;-74
2020/12/27 05:36:01;;;;;;;10.30;9.90;;;5.70;99.90;;;;;;5119321;27;20476;-74
2020/12/27 05:38:29;;;;;;;10.67;10.27;;;5.70;99.90;;;;;;5116674;27;21012;-74
2020/12/27 05:40:56;;;;;;;10.80;10.40;;;5.70;99.90;;;;;;5114662;27;20835;-74
2020/12/27 05:43:22;;;;;;;10.23;9.83;;;5.80;99.90;;;;;;5122971;27;20453;-74
2020/12/27 05:45:51;;;;;;;10.90;10.50;;;5.80;99.90;;;;;;5118676;27;20461;-74
2020/12/27 05:48:18;;;;;;;11.30;10.70;;;5.80;99.90;;;;;;5120385;27;20509;-73
2020/12/27 05:50:45;;;;;;;10.03;9.63;;;5.80;99.90;;;;;;5114702;27;20457;-73
2020/12/27 05:53:19;;;;;;;9.50;9.20;;;5.80;99.90;;;;;;5117438;27;20461;-74
2020/12/27 05:55:47;;;;;;;10.23;9.83;;;5.80;99.90;;;;;;5117323;27;20484;-73
2020/12/27 05:58:19;;;;;;;10.47;10.07;;;5.80;99.90;;;;;;5116464;27;20465;-73
2020/12/27 06:00:50;;;;;;;11.13;10.63;;;5.80;99.90;;;;;;5116483;27;20567;-74
2020/12/27 06:03:23;;;;;;;11.27;10.77;;;5.80;99.90;;;;;;5117722;27;20484;-74
2020/12/27 06:06:24;;;;;;;10.63;10.23;;;5.90;99.90;;;;;;5118899;27;20472;-74
2020/12/27 06:09:07;;;;;;;9.73;9.40;;;5.80;99.90;;;;;;5117364;27;20977;-74
2020/12/27 06:11:45;;;;;;;9.97;9.57;;;5.80;99.90;;;;;;5112920;27;20827;-74
2020/12/27 06:14:37;;;;;;;10.33;9.87;;;5.90;99.90;;;;;;5112675;27;20548;-74
2020/12/27 06:17:10;;;;;;;10.40;10.00;;;5.90;99.90;;;;;;5127116;27;20461;-73
2020/12/27 06:19:55;;;;;;;10.47;10.07;;;5.90;99.90;;;;;;5118879;27;20472;-74
2020/12/27 06:22:28;;;;;;;10.27;9.87;;;5.90;99.90;;;;;;5117197;27;20464;-74
2020/12/27 06:24:57;;;;;;;10.40;9.90;;;6.00;99.90;;;;;;5115490;27;20464;-74
2020/12/27 06:27:27;;;;;;;10.80;10.40;;;6.00;99.90;;;;;;5115270;27;20558;-74
2020/12/27 06:29:58;;;;;;;12.80;12.00;;;6.00;99.90;;;;;;5117237;27;20484;-73
2020/12/27 06:32:28;;;;;;;11.40;10.90;;;6.00;99.90;;;;;;5120957;27;20452;-74
2020/12/27 06:34:54;;;;;;;11.03;10.53;;;6.00;99.90;;;;;;5121826;27;20527;-74
2020/12/27 06:37:21;;;;;;;10.17;9.77;;;6.00;99.90;;;;;;5122124;27;20481;-74
2020/12/27 06:39:48;;;;;;;10.07;9.67;;;6.00;99.90;;;;;;5116027;27;20822;-74
2020/12/27 06:42:16;;;;;;;11.27;10.63;;;6.00;99.90;;;;;;5113110;27;20464;-74
2020/12/27 06:44:44;;;;;;;10.00;9.60;;;6.00;99.90;;;;;;5118552;27;20460;-74
2020/12/27 06:47:12;;;;;;;10.73;10.13;;;6.10;99.90;;;;;;5121077;27;21293;-74
2020/12/27 06:49:39;;;;;;;10.40;10.00;;;6.10;99.90;;;;;;5113902;27;20997;-74
2020/12/27 06:52:19;;;;;;;10.40;10.00;;;6.10;99.90;;;;;;5115592;27;20476;-74
2020/12/27 06:54:47;;;;;;;10.07;9.67;;;6.10;99.90;;;;;;5121256;27;20497;-74
2020/12/27 06:57:46;;;;;;;10.03;9.63;;;6.10;99.90;;;;;;5120022;27;20877;-74
2020/12/27 07:00:24;;;;;;;11.03;10.53;;;6.10;99.90;;;;;;5113241;27;20456;-74
2020/12/27 07:03:06;;;;;;;10.23;9.83;;;6.20;99.90;;;;;;5113980;27;20479;-73
2020/12/27 07:05:34;;;;;;;9.73;9.40;;;6.10;99.90;;;;;;5113728;27;20970;-74
2020/12/27 07:08:02;;;;;;;10.67;10.27;;;6.20;99.90;;;;;;5118299;27;20485;-74
2020/12/27 07:10:30;;;;;;;10.70;10.30;;;6.20;99.90;;;;;;5119292;27;20458;-74
2020/12/27 07:13:07;;;;;;;10.27;9.87;;;6.10;99.90;;;;;;5117801;27;20460;-73
2020/12/27 07:15:34;;;;;;;10.73;10.33;;;6.20;99.90;;;;;;5112203;27;20491;-74
2020/12/27 07:18:08;;;;;;;10.27;9.87;;;6.10;99.90;;;;;;5119566;27;20525;-74
2020/12/27 07:20:35;;;;;;;10.40;10.00;;;6.10;99.90;;;;;;5116284;27;20915;-74
2020/12/27 07:23:09;;;;;;;10.60;10.20;;;6.10;99.90;;;;;;5117701;28;20456;-73
2020/12/27 07:25:36;;;;;;;10.60;10.20;;;6.20;99.90;;;;;;5115054;28;20463;-73
2020/12/27 07:28:05;;;;;;;10.37;9.97;;;6.20;99.90;;;;;;5115233;28;20472;-73
2020/12/27 07:30:34;;;;;;;10.77;10.37;;;6.20;99.90;;;;;;5118859;27;20457;-73
2020/12/27 07:33:07;;;;;;;10.60;10.20;;;6.20;99.90;;;;;;5119786;28;20461;-73
2020/12/27 07:35:35;;;;;;;10.17;9.77;;;6.20;99.90;;;;;;5119198;28;20493;-74
2020/12/27 07:38:03;;;;;;;10.13;9.73;;;6.20;99.90;;;;;;5108841;28;21154;-73
2020/12/27 07:40:34;;;;;;;10.33;9.93;;;6.20;99.90;;;;;;5115839;28;21103;-73
2020/12/27 07:43:01;;;;;;;10.03;9.63;;;6.20;99.90;;;;;;5115179;28;20969;-73
2020/12/27 07:45:29;;;;;;;10.17;9.77;;;6.20;99.90;;;;;;5121994;27;20496;-73
2020/12/27 07:47:55;;;;;;;9.93;9.53;;;6.10;99.90;;;;;;5117213;28;20466;-73
2020/12/27 07:50:22;;;;;;;10.37;9.97;;;6.20;99.90;;;;;;5114793;28;20900;-73
2020/12/27 07:52:54;;;;;;;10.53;10.13;;;6.20;99.90;;;;;;5110859;28;20841;-74
2020/12/27 07:55:25;;;;;;;10.03;9.63;;;6.20;99.90;;;;;;5110963;28;20492;-74
2020/12/27 07:57:52;;;;;;;10.43;10.03;;;6.30;99.90;;;;;;5118190;27;20849;-74
2020/12/27 08:00:23;;;;;;;10.23;9.83;;;6.30;99.90;;;;;;5126388;27;20460;-74
2020/12/27 08:02:50;;;;;;;11.03;10.63;;;6.40;99.90;;;;;;5116609;27;20528;-74
2020/12/27 08:05:17;;;;;;;11.20;10.70;;;6.40;99.90;;;;;;5118057;27;20456;-74
2020/12/27 08:07:44;;;;;;;10.30;9.90;;;6.40;99.90;;;;;;5117891;27;20464;-75
2020/12/27 08:10:21;;;;;;;10.70;10.30;;;6.50;99.90;;;;;;5124677;27;20954;-73
2020/12/27 08:12:52;;;;;;;10.37;9.97;;;6.50;99.90;;;;;;5116486;27;20456;-73
2020/12/27 08:15:18;;;;;;;10.70;10.30;;;6.50;99.90;;;;;;5127081;27;20986;-74
2020/12/27 08:17:56;;;;;;;10.97;10.57;;;6.50;99.90;;;;;;5118120;27;20466;-74
2020/12/27 08:20:23;;;;;;;11.50;11.00;;;6.50;99.90;;;;;;5122729;27;20847;-74
2020/12/27 08:23:08;;;;;;;11.40;10.90;;;6.50;99.90;;;;;;5120309;27;20602;-72
2020/12/27 08:25:36;;;;;;;10.97;10.57;;;6.60;99.90;;;;;;5118813;27;20464;-73
2020/12/27 08:28:05;;;;;;;11.60;11.10;;;6.60;99.90;;;;;;5125429;27;20460;-74
2020/12/27 08:30:32;;;;;;;10.90;10.50;;;6.60;99.90;;;;;;5124169;27;20464;-73
2020/12/27 08:33:11;;;;;;;11.10;10.70;;;6.60;99.90;;;;;;5118362;27;20468;-73
2020/12/27 08:35:39;;;;;;;10.80;10.40;;;6.70;99.90;;;;;;5118725;27;21276;-74
2020/12/27 08:38:36;;;;;;;10.40;10.00;;;6.70;99.90;;;;;;5118673;27;20487;-73
2020/12/27 08:41:09;;;;;;;11.87;11.27;;;6.60;99.90;;;;;;5121417;27;20481;-74
2020/12/27 08:43:46;;;;;;;11.07;10.67;;;6.70;99.90;;;;;;5120696;27;20457;-74
2020/12/27 08:46:14;;;;;;;10.97;10.47;;;6.70;99.90;;;;;;5117920;27;20460;-73
2020/12/27 08:48:49;;;;;;;11.10;10.60;;;6.70;99.90;;;;;;5118691;27;20872;-73
2020/12/27 08:51:17;;;;;;;10.97;10.57;;;6.60;99.90;;;;;;5119477;27;20455;-74
2020/12/27 08:53:44;;;;;;;10.90;10.50;;;6.70;99.90;;;;;;5115228;27;20465;-74
2020/12/27 08:56:11;;;;;;;10.93;10.33;;;6.60;99.90;;;;;;5118795;27;21534;-74
2020/12/27 08:58:38;;;;;;;10.70;10.30;;;6.50;99.90;;;;;;5121064;27;20473;-73
2020/12/27 09:01:21;;;;;;;11.53;11.03;;;6.50;99.90;;;;;;5121763;27;20452;-74
2020/12/27 09:03:49;;;;;;;11.13;10.63;;;6.50;99.90;;;;;;5116190;27;20654;-74
2020/12/27 09:06:15;;;;;;;11.60;11.10;;;6.50;99.90;;;;;;5119820;27;20456;-74
2020/12/27 09:08:42;;;;;;;14.13;13.33;;;6.50;99.90;;;;;;5117006;27;20461;-74
2020/12/27 09:11:09;;;;;;;14.90;14.10;;;6.40;99.90;;;;;;5121489;27;20467;-75
2020/12/27 09:13:36;;;;;;;14.00;13.30;;;6.30;99.90;;;;;;5113596;27;20465;-75
2020/12/27 09:16:03;;;;;;;13.00;12.40;;;6.30;99.90;;;;;;5116229;27;20576;-75
2020/12/27 09:18:31;;;;;;;11.90;11.40;;;6.30;99.90;;;;;;5117883;27;20468;-75
2020/12/27 09:21:00;;;;;;;12.00;11.50;;;6.30;99.90;;;;;;5117897;27;20900;-75
2020/12/27 09:23:26;;;;;;;11.83;11.33;;;6.30;99.90;;;;;;5114779;27;20460;-76
2020/12/27 09:26:08;;;;;;;11.73;11.23;;;6.30;99.90;;;;;;5114676;27;22419;-76
2020/12/27 09:28:36;;;;;;;10.60;10.20;;;6.30;99.90;;;;;;5120453;27;20826;-76
2020/12/27 09:31:05;;;;;;;10.90;10.50;;;6.30;99.90;;;;;;5121229;27;20532;-76
2020/12/27 09:33:36;;;;;;;11.13;10.63;;;6.30;99.90;;;;;;5113219;27;20464;-75
2020/12/27 09:36:05;;;;;;;11.30;10.80;;;6.20;99.90;;;;;;5119225;27;20576;-75
2020/12/27 09:38:35;;;;;;;12.00;11.50;;;6.20;99.90;;;;;;5112286;27;20493;-76
2020/12/27 09:41:03;;;;;;;11.57;11.07;;;6.30;99.90;;;;;;5115540;27;20468;-75
2020/12/27 09:43:30;;;;;;;11.40;10.93;;;6.30;99.90;;;;;;5116018;27;20487;-76
2020/12/27 09:45:56;;;;;;;12.13;11.63;;;6.20;99.90;;;;;;5116115;27;20457;-75
2020/12/27 09:48:31;;;;;;;10.70;10.30;;;6.20;99.90;;;;;;5117837;27;20486;-75
2020/12/27 09:50:58;;;;;;;10.90;10.50;;;6.20;99.90;;;;;;5115395;27;20509;-75
2020/12/27 09:53:25;;;;;;;12.20;11.70;;;6.30;99.90;;;;;;5115272;27;20535;-75
2020/12/27 09:55:51;;;;;;;11.57;11.07;;;6.30;99.90;;;;;;5125456;27;20488;-74
2020/12/27 09:58:18;;;;;;;10.90;10.50;;;6.30;99.90;;;;;;5111412;27;20465;-75
2020/12/27 10:00:44;;;;;;;11.30;10.90;;;6.30;99.90;;;;;;5117767;27;20482;-76
2020/12/27 10:03:10;;;;;;;11.93;11.43;;;6.30;99.90;;;;;;5115524;27;20888;-75
2020/12/27 10:05:36;;;;;;;13.07;12.50;;;6.30;99.90;;;;;;5117059;27;20543;-74
2020/12/27 10:08:03;;;;;;;13.13;12.53;;;6.30;99.90;;;;;;5117976;27;20464;-77
2020/12/27 10:10:30;;;;;;;14.93;14.23;;;6.30;99.90;;;;;;5122073;27;20517;-77
2020/12/27 10:12:57;;;;;;;14.10;13.50;;;6.20;99.90;;;;;;5115025;27;20464;-76
2020/12/27 10:15:23;;;;;;;15.47;14.77;;;6.20;99.90;;;;;;5120071;27;20528;-75
2020/12/27 10:17:49;;;;;;;14.93;14.23;;;6.10;99.90;;;;;;5115147;27;20468;-77
2020/12/27 10:20:16;;;;;;;17.00;16.10;;;6.10;99.90;;;;;;5110646;27;20493;-75
2020/12/27 10:22:43;;;;;;;16.10;15.40;;;6.10;99.90;;;;;;5109860;27;20474;-77
2020/12/27 10:25:09;;;;;;;16.33;15.53;;;6.10;99.90;;;;;;5121095;27;20466;-77
2020/12/27 10:27:36;;;;;;;15.97;15.27;;;6.10;99.90;;;;;;5114550;27;20458;-77
2020/12/27 10:30:05;;;;;;;15.57;14.87;;;6.10;99.90;;;;;;5118681;27;20505;-77
2020/12/27 10:32:31;;;;;;;15.80;15.07;;;6.10;99.90;;;;;;5118198;27;20469;-75
2020/12/27 10:34:58;;;;;;;14.93;14.33;;;6.10;99.90;;;;;;5112948;27;20921;-75
2020/12/27 10:37:25;;;;;;;15.97;15.17;;;6.20;99.90;;;;;;5109711;27;20566;-76
2020/12/27 10:39:52;;;;;;;14.00;13.40;;;6.20;99.90;;;;;;5110390;27;20483;-74
2020/12/27 10:42:18;;;;;;;12.37;11.87;;;6.20;99.90;;;;;;5118819;27;20464;-76
2020/12/27 10:44:45;;;;;;;12.00;11.50;;;6.30;99.90;;;;;;5112253;27;20461;-75
2020/12/27 10:47:12;;;;;;;11.87;11.37;;;6.40;99.90;;;;;;5111695;27;20831;-76
2020/12/27 10:49:38;;;;;;;11.23;10.80;;;6.40;99.90;;;;;;5114824;27;20466;-76
2020/12/27 10:52:04;;;;;;;11.20;10.70;;;6.40;99.90;;;;;;5115464;27;20485;-76
2020/12/27 10:54:30;;;;;;;10.77;10.37;;;6.40;99.90;;;;;;5112904;27;20480;-76
2020/12/27 10:56:57;;;;;;;11.70;11.20;;;6.40;99.90;;;;;;5113277;27;20512;-76
2020/12/27 10:59:23;;;;;;;10.70;10.27;;;6.30;99.90;;;;;;5110615;27;22818;-75
2020/12/27 11:01:53;;;;;;;10.93;10.43;;;6.30;99.90;;;;;;5114338;27;20473;-75
2020/12/27 11:04:19;;;;;;;11.53;11.03;;;6.30;99.90;;;;;;5114729;27;20452;-75
2020/12/27 11:06:46;;;;;;;10.73;10.33;;;6.30;99.90;;;;;;5109280;27;20495;-74
2020/12/27 11:09:12;;;;;;;11.60;11.10;;;6.10;99.90;;;;;;5116293;27;20460;-76
2020/12/27 11:11:39;;;;;;;11.80;11.30;;;6.00;99.90;;;;;;5108124;27;20461;-76
2020/12/27 11:14:07;;;;;;;11.93;11.43;;;6.00;99.90;;;;;;5116055;27;20563;-76
2020/12/27 11:16:33;;;;;;;12.90;12.30;;;6.00;99.90;;;;;;5110191;27;20459;-75
2020/12/27 11:19:01;;;;;;;13.70;13.10;;;6.00;99.90;;;;;;5115000;27;20452;-76
2020/12/27 11:21:27;;;;;;;13.70;13.10;;;6.00;99.90;;;;;;5114603;27;20804;-77
2020/12/27 11:23:54;;;;;;;14.20;13.60;;;6.00;99.90;;;;;;5116286;27;20839;-76
2020/12/27 11:26:20;;;;;;;16.63;15.83;;;6.00;99.90;;;;;;5112404;28;20464;-75
2020/12/27 11:28:47;;;;;;;18.07;17.17;;;6.00;99.90;;;;;;5118871;28;20497;-78
2020/12/27 11:31:15;;;;;;;22.40;21.10;;;5.90;99.90;;;;;;5112607;27;20473;-79
2020/12/27 11:33:43;;;;;;;23.13;21.57;;;5.90;99.90;;;;;;5117734;27;20461;-78
2020/12/27 11:36:12;;;;;;;35.37;31.93;;;5.90;99.90;;;;;;5113261;27;20491;-76
2020/12/27 11:38:38;;;;;;;38.50;31.10;;;5.90;99.90;;;;;;5116860;27;20460;-76
2020/12/27 11:41:05;;;;;;;34.30;30.70;;;5.90;99.90;;;;;;5118071;27;20545;-80
2020/12/27 11:43:31;;;;;;;27.70;25.80;;;5.80;99.90;;;;;;5116618;27;20496;-76
2020/12/27 11:45:58;;;;;;;27.17;25.27;;;5.70;99.90;;;;;;5122626;27;20535;-80
2020/12/27 11:48:26;;;;;;;26.50;24.60;;;5.70;99.90;;;;;;5121661;27;20463;-76
2020/12/27 11:50:54;;;;;;;27.70;25.80;;;5.60;99.90;;;;;;5119358;27;20471;-79
2020/12/27 11:53:21;;;;;;;27.00;25.10;;;5.60;99.90;;;;;;5120006;27;20463;-78
2020/12/27 11:55:47;;;;;;;25.33;23.63;;;5.50;99.90;;;;;;5119266;27;20480;-79
2020/12/27 11:58:14;;;;;;;25.93;24.23;;;5.40;99.90;;;;;;5118569;27;20555;-78
2020/12/27 12:00:40;;;;;;;26.60;24.80;;;5.40;99.90;;;;;;5115634;27;20464;-78
2020/12/27 12:03:07;;;;;;;26.20;24.40;;;5.40;99.90;;;;;;5120237;27;20464;-77
2020/12/27 12:05:33;;;;;;;27.13;25.03;;;5.30;99.90;;;;;;5114778;27;20456;-78
2020/12/27 12:08:00;;;;;;;26.50;24.80;;;5.30;99.90;;;;;;5115783;27;20532;-78
2020/12/27 12:10:27;;;;;;;27.03;25.03;;;5.30;99.90;;;;;;5116712;27;20459;-78
2020/12/27 12:12:53;;;;;;;25.57;23.73;;;5.20;99.90;;;;;;5115601;27;20513;-77
2020/12/27 12:15:20;;;;;;;25.50;23.70;;;5.20;99.90;;;;;;5116548;27;20495;-78
2020/12/27 12:17:47;;;;;;;24.00;22.40;;;5.20;99.90;;;;;;5111924;27;20464;-79
2020/12/27 12:22:54;;;;;;;24.00;22.40;;;5.10;99.90;;;;;;5116752;27;20453;-78
2020/12/27 12:25:20;;;;;;;22.90;21.30;;;5.10;99.90;;;;;;5113716;27;20461;-80
2020/12/27 12:27:48;;;;;;;24.57;22.30;;;5.20;99.90;;;;;;5106783;27;20509;-76
2020/12/27 12:30:14;;;;;;;24.50;22.70;;;5.20;99.90;;;;;;5116801;27;20470;-80
2020/12/27 12:32:40;;;;;;;23.63;22.13;;;5.20;99.90;;;;;;5118269;27;20683;-79
2020/12/27 12:35:07;;;;;;;24.20;22.60;;;5.20;99.90;;;;;;5119264;27;21017;-77
2020/12/27 12:37:36;;;;;;;23.33;21.83;;;5.20;99.90;;;;;;5119891;27;20480;-76
2020/12/27 12:40:03;;;;;;;22.97;21.57;;;5.20;99.90;;;;;;5119427;27;21243;-77
2020/12/27 12:42:34;;;;;;;23.10;21.60;;;5.20;99.90;;;;;;5123060;27;20467;-77
2020/12/27 12:45:01;;;;;;;23.77;22.17;;;5.20;99.90;;;;;;5123493;27;20472;-77
2020/12/27 12:47:27;;;;;;;24.80;23.00;;;5.20;99.90;;;;;;5122306;27;20449;-79